sensor_id;sensor_type;location;lat;lon;timestamp;temperature;humidity
78696;SHT31;68030;51.980;5.646;2024-03-23T00:53:33;11.4;67.0
78696;SHT31;68030;51.980;5.646;2024-03-23T00:56:02;11.4;67.0
78696;SHT31;68030;51.980;5.646;2024-03-23T00:58:31;11.4;67.1
78696;SHT31;68030;51.980;5.646;2024-03-23T01:00:59;11.4;67.1
78696;SHT31;68030;51.980;5.646;2024-03-23T01:03:30;11.4;67.0
78696;SHT31;68030;51.980;5.646;2024-03-23T01:06:01;11.4;67.1
78696;SHT31;68030;51.980;5.646;2024-03-23T01:08:29;11.4;67.1
78696;SHT31;68030;51.980;5.646;2024-03-23T01:10:59;11.4;67.1
78696;SHT31;68030;51.980;5.646;2024-03-23T01:13:29;11.3;67.1
78696;SHT31;68030;51.980;5.646;2024-03-23T01:15:57;11.3;67.5
78696;SHT31;68030;51.980;5.646;2024-03-23T01:18:25;11.3;67.5
78696;SHT31;68030;51.980;5.646;2024-03-23T01:20:55;11.3;67.7
78696;SHT31;68030;51.980;5.646;2024-03-23T01:23:24;11.3;67.8
78696;SHT31;68030;51.980;5.646;2024-03-23T01:25:56;11.3;67.9
78696;SHT31;68030;51.980;5.646;2024-03-23T01:28:24;11.3;68.0
78696;SHT31;68030;51.980;5.646;2024-03-23T01:30:52;11.3;68.2
78696;SHT31;68030;51.980;5.646;2024-03-23T01:33:21;11.2;68.4
78696;SHT31;68030;51.980;5.646;2024-03-23T01:35:49;11.2;68.4
78696;SHT31;68030;51.980;5.646;2024-03-23T01:38:18;11.2;68.7
78696;SHT31;68030;51.980;5.646;2024-03-23T01:40:46;11.2;68.5
78696;SHT31;68030;51.980;5.646;2024-03-23T01:43:15;11.3;68.6
78696;SHT31;68030;51.980;5.646;2024-03-23T01:45:43;11.3;68.6
78696;SHT31;68030;51.980;5.646;2024-03-23T01:48:12;11.3;68.7
78696;SHT31;68030;51.980;5.646;2024-03-23T01:50:41;11.3;68.6
78696;SHT31;68030;51.980;5.646;2024-03-23T01:53:12;11.3;68.5
78696;SHT31;68030;51.980;5.646;2024-03-23T01:55:44;11.3;68.6
78696;SHT31;68030;51.980;5.646;2024-03-23T01:58:14;11.3;68.6
78696;SHT31;68030;51.980;5.646;2024-03-23T02:00:43;11.3;68.7
78696;SHT31;68030;51.980;5.646;2024-03-23T02:03:25;11.3;68.6
78696;SHT31;68030;51.980;5.646;2024-03-23T02:05:56;11.3;68.5
78696;SHT31;68030;51.980;5.646;2024-03-23T02:08:25;11.3;68.4
78696;SHT31;68030;51.980;5.646;2024-03-23T02:10:54;11.4;68.1
78696;SHT31;68030;51.980;5.646;2024-03-23T02:13:23;11.4;67.9
78696;SHT31;68030;51.980;5.646;2024-03-23T02:15:51;11.3;68.0
78696;SHT31;68030;51.980;5.646;2024-03-23T02:18:20;11.3;67.9
78696;SHT31;68030;51.980;5.646;2024-03-23T02:20:48;11.3;67.8
78696;SHT31;68030;51.980;5.646;2024-03-23T02:23:17;11.3;67.6
78696;SHT31;68030;51.980;5.646;2024-03-23T02:25:46;11.3;67.4
78696;SHT31;68030;51.980;5.646;2024-03-23T02:28:15;11.2;67.3
78696;SHT31;68030;51.980;5.646;2024-03-23T02:30:44;11.2;67.2
78696;SHT31;68030;51.980;5.646;2024-03-23T02:33:12;11.1;67.2
78696;SHT31;68030;51.980;5.646;2024-03-23T02:35:40;11.1;67.2
78696;SHT31;68030;51.980;5.646;2024-03-23T02:38:09;11.0;67.2
78696;SHT31;68030;51.980;5.646;2024-03-23T02:40:37;10.9;67.3
78696;SHT31;68030;51.980;5.646;2024-03-23T02:43:06;10.9;67.3
78696;SHT31;68030;51.980;5.646;2024-03-23T02:45:36;10.8;67.2
78696;SHT31;68030;51.980;5.646;2024-03-23T02:48:05;10.7;67.2
78696;SHT31;68030;51.980;5.646;2024-03-23T02:50:36;10.6;67.4
78696;SHT31;68030;51.980;5.646;2024-03-23T02:53:05;10.6;67.5
78696;SHT31;68030;51.980;5.646;2024-03-23T02:55:33;10.5;67.6
78696;SHT31;68030;51.980;5.646;2024-03-23T02:58:02;10.4;67.8
78696;SHT31;68030;51.980;5.646;2024-03-23T03:00:30;10.4;68.0
78696;SHT31;68030;51.980;5.646;2024-03-23T03:02:59;10.3;68.2
78696;SHT31;68030;51.980;5.646;2024-03-23T03:05:27;10.2;68.3
78696;SHT31;68030;51.980;5.646;2024-03-23T03:07:56;10.2;68.4
78696;SHT31;68030;51.980;5.646;2024-03-23T03:10:26;10.1;68.5
78696;SHT31;68030;51.980;5.646;2024-03-23T03:12:55;10.1;68.6
78696;SHT31;68030;51.980;5.646;2024-03-23T03:15:23;10.0;68.7
78696;SHT31;68030;51.980;5.646;2024-03-23T03:17:52;10.0;68.8
78696;SHT31;68030;51.980;5.646;2024-03-23T03:20:20;9.9;68.9
78696;SHT31;68030;51.980;5.646;2024-03-23T03:22:50;9.9;69.1
78696;SHT31;68030;51.980;5.646;2024-03-23T03:25:20;9.9;69.1
78696;SHT31;68030;51.980;5.646;2024-03-23T03:27:48;9.9;69.1
78696;SHT31;68030;51.980;5.646;2024-03-23T03:30:17;9.9;69.3
78696;SHT31;68030;51.980;5.646;2024-03-23T03:32:45;9.8;69.5
78696;SHT31;68030;51.980;5.646;2024-03-23T03:35:14;9.8;69.5
78696;SHT31;68030;51.980;5.646;2024-03-23T03:37:42;9.8;69.4
78696;SHT31;68030;51.980;5.646;2024-03-23T03:40:12;9.8;69.2
78696;SHT31;68030;51.980;5.646;2024-03-23T03:42:41;9.8;68.9
78696;SHT31;68030;51.980;5.646;2024-03-23T03:45:10;9.7;68.7
78696;SHT31;68030;51.980;5.646;2024-03-23T03:47:39;9.7;68.5
78696;SHT31;68030;51.980;5.646;2024-03-23T03:50:08;9.7;68.3
78696;SHT31;68030;51.980;5.646;2024-03-23T03:52:37;9.6;68.0
78696;SHT31;68030;51.980;5.646;2024-03-23T03:55:14;9.6;67.9
78696;SHT31;68030;51.980;5.646;2024-03-23T03:57:42;9.6;67.9
78696;SHT31;68030;51.980;5.646;2024-03-23T04:00:12;9.6;67.5
78696;SHT31;68030;51.980;5.646;2024-03-23T04:02:42;9.5;67.2
78696;SHT31;68030;51.980;5.646;2024-03-23T04:05:10;9.5;67.1
78696;SHT31;68030;51.980;5.646;2024-03-23T04:07:39;9.4;66.9
78696;SHT31;68030;51.980;5.646;2024-03-23T04:10:08;9.4;66.9
78696;SHT31;68030;51.980;5.646;2024-03-23T04:12:37;9.4;66.8
78696;SHT31;68030;51.980;5.646;2024-03-23T04:15:09;9.3;67.0
78696;SHT31;68030;51.980;5.646;2024-03-23T04:17:38;9.3;67.3
78696;SHT31;68030;51.980;5.646;2024-03-23T04:20:09;9.2;67.3
78696;SHT31;68030;51.980;5.646;2024-03-23T04:22:43;9.2;67.3
78696;SHT31;68030;51.980;5.646;2024-03-23T04:25:13;9.2;66.9
78696;SHT31;68030;51.980;5.646;2024-03-23T04:27:41;9.1;66.7
78696;SHT31;68030;51.980;5.646;2024-03-23T04:30:11;9.1;66.6
78696;SHT31;68030;51.980;5.646;2024-03-23T04:32:40;9.0;66.6
78696;SHT31;68030;51.980;5.646;2024-03-23T04:35:09;9.0;66.5
78696;SHT31;68030;51.980;5.646;2024-03-23T04:37:38;9.0;66.6
78696;SHT31;68030;51.980;5.646;2024-03-23T04:40:10;8.9;66.7
78696;SHT31;68030;51.980;5.646;2024-03-23T04:42:39;8.9;66.7
78696;SHT31;68030;51.980;5.646;2024-03-23T04:45:09;8.9;66.8
78696;SHT31;68030;51.980;5.646;2024-03-23T04:47:37;8.8;66.8
78696;SHT31;68030;51.980;5.646;2024-03-23T04:50:10;8.8;67.0
78696;SHT31;68030;51.980;5.646;2024-03-23T04:52:39;8.8;67.0
78696;SHT31;68030;51.980;5.646;2024-03-23T04:55:08;8.8;67.4
78696;SHT31;68030;51.980;5.646;2024-03-23T04:57:38;8.8;66.9
78696;SHT31;68030;51.980;5.646;2024-03-23T05:00:08;8.7;66.7
78696;SHT31;68030;51.980;5.646;2024-03-23T05:02:43;8.7;66.7
78696;SHT31;68030;51.980;5.646;2024-03-23T05:05:12;8.7;66.8
78696;SHT31;68030;51.980;5.646;2024-03-23T05:07:40;8.7;67.1
78696;SHT31;68030;51.980;5.646;2024-03-23T05:10:10;8.7;67.1
78696;SHT31;68030;51.980;5.646;2024-03-23T05:12:40;8.7;67.2
78696;SHT31;68030;51.980;5.646;2024-03-23T05:15:09;8.6;67.0
78696;SHT31;68030;51.980;5.646;2024-03-23T05:17:38;8.6;66.9
78696;SHT31;68030;51.980;5.646;2024-03-23T05:20:08;8.6;66.9
78696;SHT31;68030;51.980;5.646;2024-03-23T05:22:39;8.6;66.8
78696;SHT31;68030;51.980;5.646;2024-03-23T05:25:09;8.6;66.9
78696;SHT31;68030;51.980;5.646;2024-03-23T05:27:38;8.6;67.0
78696;SHT31;68030;51.980;5.646;2024-03-23T05:30:08;8.6;67.0
78696;SHT31;68030;51.980;5.646;2024-03-23T05:32:37;8.6;66.9
78696;SHT31;68030;51.980;5.646;2024-03-23T05:35:07;8.5;66.6
78696;SHT31;68030;51.980;5.646;2024-03-23T05:37:36;8.5;66.6
78696;SHT31;68030;51.980;5.646;2024-03-23T05:40:05;8.5;66.5
78696;SHT31;68030;51.980;5.646;2024-03-23T05:42:34;8.5;66.3
78696;SHT31;68030;51.980;5.646;2024-03-23T05:45:03;8.5;65.9
78696;SHT31;68030;51.980;5.646;2024-03-23T05:47:34;8.4;65.7
78696;SHT31;68030;51.980;5.646;2024-03-23T05:50:03;8.4;65.9
78696;SHT31;68030;51.980;5.646;2024-03-23T05:52:32;8.4;65.9
78696;SHT31;68030;51.980;5.646;2024-03-23T05:55:01;8.4;66.0
78696;SHT31;68030;51.980;5.646;2024-03-23T05:57:29;8.4;66.2
78696;SHT31;68030;51.980;5.646;2024-03-23T05:59:58;8.3;66.4
78696;SHT31;68030;51.980;5.646;2024-03-23T06:02:28;8.4;66.8
78696;SHT31;68030;51.980;5.646;2024-03-23T06:04:56;8.4;67.3
78696;SHT31;68030;51.980;5.646;2024-03-23T06:07:25;8.4;67.6
78696;SHT31;68030;51.980;5.646;2024-03-23T06:09:54;8.4;67.7
78696;SHT31;68030;51.980;5.646;2024-03-23T06:12:23;8.5;67.6
78696;SHT31;68030;51.980;5.646;2024-03-23T06:14:52;8.6;67.5
78696;SHT31;68030;51.980;5.646;2024-03-23T06:17:23;8.6;67.6
78696;SHT31;68030;51.980;5.646;2024-03-23T06:19:51;8.6;67.5
78696;SHT31;68030;51.980;5.646;2024-03-23T06:22:20;8.7;67.1
78696;SHT31;68030;51.980;5.646;2024-03-23T06:24:48;8.7;66.8
78696;SHT31;68030;51.980;5.646;2024-03-23T06:27:17;8.8;66.5
78696;SHT31;68030;51.980;5.646;2024-03-23T06:29:45;8.8;66.7
78696;SHT31;68030;51.980;5.646;2024-03-23T06:32:14;8.9;66.4
78696;SHT31;68030;51.980;5.646;2024-03-23T06:34:44;8.9;66.2
78696;SHT31;68030;51.980;5.646;2024-03-23T06:37:13;9.0;65.9
78696;SHT31;68030;51.980;5.646;2024-03-23T06:39:41;9.0;65.3
78696;SHT31;68030;51.980;5.646;2024-03-23T06:42:10;9.0;65.0
78696;SHT31;68030;51.980;5.646;2024-03-23T06:44:38;9.1;65.0
78696;SHT31;68030;51.980;5.646;2024-03-23T06:47:07;9.1;65.1
78696;SHT31;68030;51.980;5.646;2024-03-23T06:49:36;9.1;65.2
78696;SHT31;68030;51.980;5.646;2024-03-23T06:52:05;9.2;65.4
78696;SHT31;68030;51.980;5.646;2024-03-23T06:54:33;9.2;65.4
78696;SHT31;68030;51.980;5.646;2024-03-23T06:57:02;9.2;64.9
78696;SHT31;68030;51.980;5.646;2024-03-23T06:59:31;9.3;64.6
78696;SHT31;68030;51.980;5.646;2024-03-23T07:01:59;9.3;64.3
78696;SHT31;68030;51.980;5.646;2024-03-23T07:04:28;9.3;64.3
78696;SHT31;68030;51.980;5.646;2024-03-23T07:06:56;9.3;64.1
78696;SHT31;68030;51.980;5.646;2024-03-23T07:09:24;9.4;64.6
78696;SHT31;68030;51.980;5.646;2024-03-23T07:11:53;9.4;65.2
78696;SHT31;68030;51.980;5.646;2024-03-23T07:14:22;9.4;65.2
78696;SHT31;68030;51.980;5.646;2024-03-23T07:16:51;9.5;65.4
78696;SHT31;68030;51.980;5.646;2024-03-23T07:19:20;9.6;65.9
78696;SHT31;68030;51.980;5.646;2024-03-23T07:21:50;9.6;65.4
78696;SHT31;68030;51.980;5.646;2024-03-23T07:24:19;9.7;65.2
78696;SHT31;68030;51.980;5.646;2024-03-23T07:26:47;9.7;65.5
78696;SHT31;68030;51.980;5.646;2024-03-23T07:29:20;9.8;64.7
78696;SHT31;68030;51.980;5.646;2024-03-23T07:31:51;9.8;64.2
78696;SHT31;68030;51.980;5.646;2024-03-23T07:34:20;9.9;64.2
78696;SHT31;68030;51.980;5.646;2024-03-23T07:36:49;9.9;64.5
78696;SHT31;68030;51.980;5.646;2024-03-23T07:39:17;10.0;64.1
78696;SHT31;68030;51.980;5.646;2024-03-23T07:41:46;10.0;63.9
78696;SHT31;68030;51.980;5.646;2024-03-23T07:44:14;10.1;64.0
78696;SHT31;68030;51.980;5.646;2024-03-23T07:46:43;10.1;63.6
78696;SHT31;68030;51.980;5.646;2024-03-23T07:49:11;10.1;63.7
78696;SHT31;68030;51.980;5.646;2024-03-23T07:51:40;10.2;62.6
78696;SHT31;68030;51.980;5.646;2024-03-23T07:54:10;10.2;62.8
78696;SHT31;68030;51.980;5.646;2024-03-23T07:56:41;10.3;63.0
78696;SHT31;68030;51.980;5.646;2024-03-23T07:59:09;10.3;62.7
78696;SHT31;68030;51.980;5.646;2024-03-23T08:01:38;10.4;62.3
78696;SHT31;68030;51.980;5.646;2024-03-23T08:04:06;10.4;62.5
78696;SHT31;68030;51.980;5.646;2024-03-23T08:06:35;10.5;62.5
78696;SHT31;68030;51.980;5.646;2024-03-23T08:09:03;10.5;61.4
78696;SHT31;68030;51.980;5.646;2024-03-23T08:11:32;10.6;60.6
78696;SHT31;68030;51.980;5.646;2024-03-23T08:14:01;10.7;59.9
78696;SHT31;68030;51.980;5.646;2024-03-23T08:16:31;10.7;59.5
78696;SHT31;68030;51.980;5.646;2024-03-23T08:19:00;10.8;59.6
78696;SHT31;68030;51.980;5.646;2024-03-23T08:21:29;10.9;59.5
78696;SHT31;68030;51.980;5.646;2024-03-23T08:24:00;11.0;59.9
78696;SHT31;68030;51.980;5.646;2024-03-23T08:26:29;11.1;59.2
78696;SHT31;68030;51.980;5.646;2024-03-23T08:28:58;11.2;57.6
78696;SHT31;68030;51.980;5.646;2024-03-23T08:31:26;11.3;56.9
78696;SHT31;68030;51.980;5.646;2024-03-23T08:33:54;11.4;57.4
78696;SHT31;68030;51.980;5.646;2024-03-23T08:36:23;11.5;57.6
78696;SHT31;68030;51.980;5.646;2024-03-23T08:38:52;11.6;56.6
78696;SHT31;68030;51.980;5.646;2024-03-23T08:41:21;11.8;55.4
78696;SHT31;68030;51.980;5.646;2024-03-23T08:43:50;11.9;54.3
78696;SHT31;68030;51.980;5.646;2024-03-23T08:46:19;12.0;54.4
78696;SHT31;68030;51.980;5.646;2024-03-23T08:48:47;12.0;54.9
78696;SHT31;68030;51.980;5.646;2024-03-23T08:51:17;12.0;55.7
78696;SHT31;68030;51.980;5.646;2024-03-23T08:53:45;11.9;57.4
78696;SHT31;68030;51.980;5.646;2024-03-23T08:56:14;11.8;57.9
78696;SHT31;68030;51.980;5.646;2024-03-23T08:58:43;11.7;57.4
78696;SHT31;68030;51.980;5.646;2024-03-23T09:01:13;11.5;58.6
78696;SHT31;68030;51.980;5.646;2024-03-23T09:03:42;11.4;58.5
78696;SHT31;68030;51.980;5.646;2024-03-23T09:06:13;11.2;58.3
78696;SHT31;68030;51.980;5.646;2024-03-23T09:08:42;11.0;57.7
78696;SHT31;68030;51.980;5.646;2024-03-23T09:11:12;10.8;57.8
78696;SHT31;68030;51.980;5.646;2024-03-23T09:13:43;10.7;59.3
78696;SHT31;68030;51.980;5.646;2024-03-23T09:16:11;10.5;60.0
78696;SHT31;68030;51.980;5.646;2024-03-23T09:18:40;10.5;59.8
78696;SHT31;68030;51.980;5.646;2024-03-23T09:21:13;10.4;60.8
78696;SHT31;68030;51.980;5.646;2024-03-23T09:23:43;10.4;60.1
78696;SHT31;68030;51.980;5.646;2024-03-23T09:26:12;10.4;60.3
78696;SHT31;68030;51.980;5.646;2024-03-23T09:28:41;10.3;60.4
78696;SHT31;68030;51.980;5.646;2024-03-23T09:31:10;10.4;59.2
78696;SHT31;68030;51.980;5.646;2024-03-23T09:33:42;10.4;60.4
78696;SHT31;68030;51.980;5.646;2024-03-23T09:36:11;10.4;57.8
78696;SHT31;68030;51.980;5.646;2024-03-23T09:38:40;10.5;58.2
78696;SHT31;68030;51.980;5.646;2024-03-23T09:41:09;10.6;57.7
78696;SHT31;68030;51.980;5.646;2024-03-23T09:43:40;10.7;57.3
78696;SHT31;68030;51.980;5.646;2024-03-23T09:46:10;10.8;57.4
78696;SHT31;68030;51.980;5.646;2024-03-23T09:48:39;11.0;56.4
78696;SHT31;68030;51.980;5.646;2024-03-23T09:51:08;11.1;55.2
78696;SHT31;68030;51.980;5.646;2024-03-23T09:53:37;11.3;54.9
78696;SHT31;68030;51.980;5.646;2024-03-23T09:56:07;11.4;53.7
78696;SHT31;68030;51.980;5.646;2024-03-23T09:58:37;11.6;53.4
78696;SHT31;68030;51.980;5.646;2024-03-23T10:01:06;11.7;53.5
78696;SHT31;68030;51.980;5.646;2024-03-23T10:03:44;11.9;54.5
78696;SHT31;68030;51.980;5.646;2024-03-23T10:06:13;12.0;51.9
78696;SHT31;68030;51.980;5.646;2024-03-23T10:08:42;12.2;53.0
78696;SHT31;68030;51.980;5.646;2024-03-23T10:11:16;12.3;52.7
78696;SHT31;68030;51.980;5.646;2024-03-23T10:13:45;12.4;51.2
78696;SHT31;68030;51.980;5.646;2024-03-23T10:16:24;12.5;52.3
78696;SHT31;68030;51.980;5.646;2024-03-23T10:18:53;12.4;51.9
78696;SHT31;68030;51.980;5.646;2024-03-23T10:21:22;12.1;53.8
78696;SHT31;68030;51.980;5.646;2024-03-23T10:23:51;11.7;55.7
78696;SHT31;68030;51.980;5.646;2024-03-23T10:26:21;11.5;56.3
78696;SHT31;68030;51.980;5.646;2024-03-23T10:28:59;11.4;56.5
78696;SHT31;68030;51.980;5.646;2024-03-23T10:31:36;11.3;56.5
78696;SHT31;68030;51.980;5.646;2024-03-23T10:34:07;11.3;56.0
78696;SHT31;68030;51.980;5.646;2024-03-23T10:36:40;11.2;55.8
78696;SHT31;68030;51.980;5.646;2024-03-23T10:39:10;11.2;57.5
78696;SHT31;68030;51.980;5.646;2024-03-23T10:41:45;11.3;53.5
78696;SHT31;68030;51.980;5.646;2024-03-23T10:44:14;11.4;51.5
78696;SHT31;68030;51.980;5.646;2024-03-23T10:46:45;11.5;50.2
78696;SHT31;68030;51.980;5.646;2024-03-23T10:49:13;11.5;51.8
78696;SHT31;68030;51.980;5.646;2024-03-23T10:51:42;11.6;52.3
78696;SHT31;68030;51.980;5.646;2024-03-23T10:54:13;11.7;53.1
78696;SHT31;68030;51.980;5.646;2024-03-23T10:56:41;11.7;52.1
78696;SHT31;68030;51.980;5.646;2024-03-23T10:59:11;11.8;51.7
78696;SHT31;68030;51.980;5.646;2024-03-23T11:01:54;11.9;50.2
78696;SHT31;68030;51.980;5.646;2024-03-23T11:04:33;11.9;51.4
78696;SHT31;68030;51.980;5.646;2024-03-23T11:07:02;11.9;51.7
78696;SHT31;68030;51.980;5.646;2024-03-23T11:09:40;12.0;51.5
78696;SHT31;68030;51.980;5.646;2024-03-23T11:13:24;12.1;51.2
78696;SHT31;68030;51.980;5.646;2024-03-23T11:15:52;12.2;50.9
78696;SHT31;68030;51.980;5.646;2024-03-23T11:18:22;12.3;51.9
78696;SHT31;68030;51.980;5.646;2024-03-23T11:20:50;12.4;50.1
78696;SHT31;68030;51.980;5.646;2024-03-23T11:23:29;12.4;48.7
78696;SHT31;68030;51.980;5.646;2024-03-23T11:25:59;12.5;49.6
78696;SHT31;68030;51.980;5.646;2024-03-23T11:28:32;12.5;50.1
78696;SHT31;68030;51.980;5.646;2024-03-23T11:31:01;12.5;50.8
78696;SHT31;68030;51.980;5.646;2024-03-23T11:33:29;12.5;50.4
78696;SHT31;68030;51.980;5.646;2024-03-23T11:35:58;12.6;49.9
78696;SHT31;68030;51.980;5.646;2024-03-23T11:38:28;12.7;48.5
78696;SHT31;68030;51.980;5.646;2024-03-23T11:40:56;12.8;48.9
78696;SHT31;68030;51.980;5.646;2024-03-23T11:43:25;12.9;48.0
78696;SHT31;68030;51.980;5.646;2024-03-23T11:45:53;13.0;48.9
78696;SHT31;68030;51.980;5.646;2024-03-23T11:48:24;13.0;48.2
78696;SHT31;68030;51.980;5.646;2024-03-23T11:50:55;13.1;47.4
78696;SHT31;68030;51.980;5.646;2024-03-23T11:53:25;13.1;48.8
78696;SHT31;68030;51.980;5.646;2024-03-23T11:55:58;13.1;46.4
78696;SHT31;68030;51.980;5.646;2024-03-23T11:58:27;13.1;47.2
78696;SHT31;68030;51.980;5.646;2024-03-23T12:00:58;13.1;47.3
78696;SHT31;68030;51.980;5.646;2024-03-23T12:03:29;13.0;47.3
78696;SHT31;68030;51.980;5.646;2024-03-23T12:06:01;12.9;46.4
78696;SHT31;68030;51.980;5.646;2024-03-23T12:08:32;12.9;46.7
78696;SHT31;68030;51.980;5.646;2024-03-23T12:11:09;12.8;46.8
78696;SHT31;68030;51.980;5.646;2024-03-23T12:13:41;12.8;46.8
78696;SHT31;68030;51.980;5.646;2024-03-23T12:16:12;12.8;47.4
78696;SHT31;68030;51.980;5.646;2024-03-23T12:18:43;12.8;46.6
78696;SHT31;68030;51.980;5.646;2024-03-23T12:21:13;12.8;46.2
78696;SHT31;68030;51.980;5.646;2024-03-23T12:23:41;12.8;46.7
78696;SHT31;68030;51.980;5.646;2024-03-23T12:26:11;12.9;46.8
78696;SHT31;68030;51.980;5.646;2024-03-23T12:28:40;13.0;46.2
78696;SHT31;68030;51.980;5.646;2024-03-23T12:31:10;13.1;46.0
78696;SHT31;68030;51.980;5.646;2024-03-23T12:33:39;13.2;46.0
78696;SHT31;68030;51.980;5.646;2024-03-23T12:36:08;13.2;45.6
78696;SHT31;68030;51.980;5.646;2024-03-23T12:38:36;13.3;47.2
78696;SHT31;68030;51.980;5.646;2024-03-23T12:41:05;13.2;48.6
78696;SHT31;68030;51.980;5.646;2024-03-23T12:43:34;13.1;48.8
78696;SHT31;68030;51.980;5.646;2024-03-23T12:46:04;13.0;49.9
78696;SHT31;68030;51.980;5.646;2024-03-23T12:48:34;13.0;47.8
78696;SHT31;68030;51.980;5.646;2024-03-23T12:51:03;12.9;46.7
78696;SHT31;68030;51.980;5.646;2024-03-23T12:53:32;12.8;45.2
78696;SHT31;68030;51.980;5.646;2024-03-23T12:56:00;12.8;46.5
78696;SHT31;68030;51.980;5.646;2024-03-23T12:58:29;12.8;47.7
78696;SHT31;68030;51.980;5.646;2024-03-23T13:01:00;12.8;47.4
78696;SHT31;68030;51.980;5.646;2024-03-23T13:03:29;12.9;48.9
78696;SHT31;68030;51.980;5.646;2024-03-23T13:05:57;12.9;45.0
78696;SHT31;68030;51.980;5.646;2024-03-23T13:08:26;12.9;45.3
78696;SHT31;68030;51.980;5.646;2024-03-23T13:10:54;12.9;45.5
78696;SHT31;68030;51.980;5.646;2024-03-23T13:13:23;12.9;45.9
78696;SHT31;68030;51.980;5.646;2024-03-23T13:15:52;12.9;46.5
78696;SHT31;68030;51.980;5.646;2024-03-23T13:18:20;12.9;45.6
78696;SHT31;68030;51.980;5.646;2024-03-23T13:20:49;12.9;46.3
78696;SHT31;68030;51.980;5.646;2024-03-23T13:23:17;12.8;46.7
78696;SHT31;68030;51.980;5.646;2024-03-23T13:25:51;12.8;46.7
78696;SHT31;68030;51.980;5.646;2024-03-23T13:28:21;12.8;45.6
78696;SHT31;68030;51.980;5.646;2024-03-23T13:30:55;12.8;46.3
78696;SHT31;68030;51.980;5.646;2024-03-23T13:33:26;12.7;46.0
78696;SHT31;68030;51.980;5.646;2024-03-23T13:35:55;12.7;46.8
78696;SHT31;68030;51.980;5.646;2024-03-23T13:38:26;12.6;47.7
78696;SHT31;68030;51.980;5.646;2024-03-23T13:40:57;12.6;46.0
78696;SHT31;68030;51.980;5.646;2024-03-23T13:43:27;12.6;45.5
78696;SHT31;68030;51.980;5.646;2024-03-23T13:45:57;12.5;44.8
78696;SHT31;68030;51.980;5.646;2024-03-23T13:48:27;12.5;45.0
78696;SHT31;68030;51.980;5.646;2024-03-23T13:50:59;12.5;45.8
78696;SHT31;68030;51.980;5.646;2024-03-23T13:53:29;12.4;45.5
78696;SHT31;68030;51.980;5.646;2024-03-23T13:55:59;12.4;46.6
78696;SHT31;68030;51.980;5.646;2024-03-23T13:58:28;12.3;50.8
78696;SHT31;68030;51.980;5.646;2024-03-23T14:00:58;12.3;50.3
78696;SHT31;68030;51.980;5.646;2024-03-23T14:03:26;12.3;49.8
78696;SHT31;68030;51.980;5.646;2024-03-23T14:05:57;12.3;48.9
78696;SHT31;68030;51.980;5.646;2024-03-23T14:08:28;12.2;48.9
78696;SHT31;68030;51.980;5.646;2024-03-23T14:10:59;12.2;49.6
78696;SHT31;68030;51.980;5.646;2024-03-23T14:13:27;12.2;48.9
78696;SHT31;68030;51.980;5.646;2024-03-23T14:15:56;12.2;49.3
78696;SHT31;68030;51.980;5.646;2024-03-23T14:18:26;12.1;48.7
78696;SHT31;68030;51.980;5.646;2024-03-23T14:20:57;12.1;49.6
78696;SHT31;68030;51.980;5.646;2024-03-23T14:23:28;11.9;50.7
78696;SHT31;68030;51.980;5.646;2024-03-23T14:26:00;11.8;50.8
78696;SHT31;68030;51.980;5.646;2024-03-23T14:28:28;11.6;51.9
78696;SHT31;68030;51.980;5.646;2024-03-23T14:30:59;11.4;52.4
78696;SHT31;68030;51.980;5.646;2024-03-23T14:33:27;11.3;52.9
78696;SHT31;68030;51.980;5.646;2024-03-23T14:35:57;11.2;53.3
78696;SHT31;68030;51.980;5.646;2024-03-23T14:38:28;11.2;53.1
78696;SHT31;68030;51.980;5.646;2024-03-23T14:40:58;11.1;53.4
78696;SHT31;68030;51.980;5.646;2024-03-23T14:43:29;11.1;53.7
78696;SHT31;68030;51.980;5.646;2024-03-23T14:46:11;11.0;53.5
78696;SHT31;68030;51.980;5.646;2024-03-23T14:48:42;11.0;53.4
78696;SHT31;68030;51.980;5.646;2024-03-23T14:51:12;11.0;53.4
78696;SHT31;68030;51.980;5.646;2024-03-23T14:53:45;11.0;54.0
78696;SHT31;68030;51.980;5.646;2024-03-23T14:56:14;11.0;54.2
78696;SHT31;68030;51.980;5.646;2024-03-23T14:58:46;11.0;54.2
78696;SHT31;68030;51.980;5.646;2024-03-23T15:01:15;11.0;54.6
78696;SHT31;68030;51.980;5.646;2024-03-23T15:03:43;11.1;54.7
78696;SHT31;68030;51.980;5.646;2024-03-23T15:06:13;11.1;55.9
78696;SHT31;68030;51.980;5.646;2024-03-23T15:08:42;11.2;55.3
78696;SHT31;68030;51.980;5.646;2024-03-23T15:11:10;11.3;54.6
78696;SHT31;68030;51.980;5.646;2024-03-23T15:13:39;11.4;53.0
78696;SHT31;68030;51.980;5.646;2024-03-23T15:16:08;11.6;52.1
78696;SHT31;68030;51.980;5.646;2024-03-23T15:18:36;11.8;52.7
78696;SHT31;68030;51.980;5.646;2024-03-23T15:21:06;11.9;51.4
78696;SHT31;68030;51.980;5.646;2024-03-23T15:23:37;12.1;50.2
78696;SHT31;68030;51.980;5.646;2024-03-23T15:26:06;12.2;49.2
78696;SHT31;68030;51.980;5.646;2024-03-23T15:28:34;12.3;49.6
78696;SHT31;68030;51.980;5.646;2024-03-23T15:31:09;12.3;48.3
78696;SHT31;68030;51.980;5.646;2024-03-23T15:33:38;12.3;47.7
78696;SHT31;68030;51.980;5.646;2024-03-23T15:36:10;12.4;46.2
78696;SHT31;68030;51.980;5.646;2024-03-23T15:38:39;12.4;46.6
78696;SHT31;68030;51.980;5.646;2024-03-23T15:41:09;12.4;46.8
78696;SHT31;68030;51.980;5.646;2024-03-23T15:43:37;12.4;46.2
78696;SHT31;68030;51.980;5.646;2024-03-23T15:46:08;12.3;46.4
78696;SHT31;68030;51.980;5.646;2024-03-23T15:48:38;12.3;47.4
78696;SHT31;68030;51.980;5.646;2024-03-23T15:51:06;12.3;47.7
78696;SHT31;68030;51.980;5.646;2024-03-23T15:53:35;12.2;47.8
78696;SHT31;68030;51.980;5.646;2024-03-23T15:56:08;12.2;48.3
78696;SHT31;68030;51.980;5.646;2024-03-23T15:58:36;12.1;48.7
78696;SHT31;68030;51.980;5.646;2024-03-23T16:01:06;12.1;48.8
78696;SHT31;68030;51.980;5.646;2024-03-23T16:03:37;12.0;49.1
78696;SHT31;68030;51.980;5.646;2024-03-23T16:06:07;12.0;49.4
78696;SHT31;68030;51.980;5.646;2024-03-23T16:08:36;11.9;50.3
78696;SHT31;68030;51.980;5.646;2024-03-23T16:11:07;11.9;50.3
78696;SHT31;68030;51.980;5.646;2024-03-23T16:13:38;11.9;50.6
78696;SHT31;68030;51.980;5.646;2024-03-23T16:16:08;11.9;50.8
78696;SHT31;68030;51.980;5.646;2024-03-23T16:18:38;11.9;50.7
78696;SHT31;68030;51.980;5.646;2024-03-23T16:21:08;11.8;50.0
78696;SHT31;68030;51.980;5.646;2024-03-23T16:23:37;11.8;51.1
78696;SHT31;68030;51.980;5.646;2024-03-23T16:26:08;11.8;51.2
78696;SHT31;68030;51.980;5.646;2024-03-23T16:28:40;11.8;51.2
78696;SHT31;68030;51.980;5.646;2024-03-23T16:31:11;11.7;51.3
78696;SHT31;68030;51.980;5.646;2024-03-23T16:33:40;11.7;51.3
78696;SHT31;68030;51.980;5.646;2024-03-23T16:36:10;11.7;51.5
78696;SHT31;68030;51.980;5.646;2024-03-23T16:38:41;11.7;51.9
78696;SHT31;68030;51.980;5.646;2024-03-23T16:41:11;11.7;52.8
78696;SHT31;68030;51.980;5.646;2024-03-23T16:43:42;11.7;52.8
78696;SHT31;68030;51.980;5.646;2024-03-23T16:46:12;11.7;52.2
78696;SHT31;68030;51.980;5.646;2024-03-23T16:48:42;11.7;51.2
78696;SHT31;68030;51.980;5.646;2024-03-23T16:51:12;11.7;50.1
78696;SHT31;68030;51.980;5.646;2024-03-23T16:53:41;11.7;50.8
78696;SHT31;68030;51.980;5.646;2024-03-23T16:56:12;11.6;50.3
78696;SHT31;68030;51.980;5.646;2024-03-23T16:58:41;11.6;50.9
78696;SHT31;68030;51.980;5.646;2024-03-23T17:01:12;11.6;50.5
78696;SHT31;68030;51.980;5.646;2024-03-23T17:03:48;11.6;50.8
78696;SHT31;68030;51.980;5.646;2024-03-23T17:06:17;11.5;51.2
78696;SHT31;68030;51.980;5.646;2024-03-23T17:08:50;11.5;51.3
78696;SHT31;68030;51.980;5.646;2024-03-23T17:11:19;11.5;51.7
78696;SHT31;68030;51.980;5.646;2024-03-23T17:13:50;11.5;50.9
78696;SHT31;68030;51.980;5.646;2024-03-23T17:16:20;11.4;51.0